createdAt,value
2018-12-15T00:00:24.977Z,100843.53
2018-12-15T00:02:53.070Z,100849.27
2018-12-15T00:05:21.187Z,100843.02
2018-12-15T00:07:49.301Z,100847.95
2018-12-15T00:10:17.413Z,100847.77
2018-12-15T00:12:45.544Z,100847.94
2018-12-15T00:15:13.652Z,100847.63
2018-12-15T00:17:41.750Z,100848.92
2018-12-15T00:20:09.859Z,100849.42
2018-12-15T00:22:37.961Z,100852.36
2018-12-15T00:25:06.070Z,100855.81
2018-12-15T00:27:34.197Z,100855.97
2018-12-15T00:30:02.316Z,100858.10
2018-12-15T00:32:30.448Z,100863.86
2018-12-15T00:34:58.561Z,100861.55
2018-12-15T00:37:26.671Z,100867.63
2018-12-15T00:39:54.781Z,100870.91
2018-12-15T00:42:32.302Z,100865.81
2018-12-15T00:45:00.484Z,100871.91
2018-12-15T00:47:28.577Z,100876.66
2018-12-15T00:49:56.682Z,100881.57
2018-12-15T00:52:24.797Z,100876.50
2018-12-15T00:54:52.910Z,100879.62
2018-12-15T00:57:21.019Z,100883.88
2018-12-15T00:59:49.155Z,100880.94
2018-12-15T01:02:17.268Z,100885.98
2018-12-15T01:04:45.398Z,100892.22
2018-12-15T01:07:13.507Z,100894.37
2018-12-15T01:09:41.616Z,100889.30
2018-12-15T01:12:09.721Z,100893.39
2018-12-15T01:14:37.835Z,100894.72
2018-12-15T01:17:05.932Z,100889.30
2018-12-15T01:19:34.035Z,100886.02
2018-12-15T01:22:02.138Z,100891.91
2018-12-15T01:24:30.250Z,100894.22
2018-12-15T01:26:58.363Z,100897.48
2018-12-15T01:29:26.481Z,100890.76
2018-12-15T01:31:54.590Z,100895.02
2018-12-15T01:34:22.707Z,100903.55
2018-12-15T01:36:50.825Z,100908.48
2018-12-15T01:39:19.685Z,100914.87
2018-12-15T01:41:47.963Z,100910.75
2018-12-15T01:44:16.087Z,100911.08
2018-12-15T01:46:44.195Z,100913.71
2018-12-15T01:49:12.302Z,100916.67
2018-12-15T01:51:40.403Z,100916.35
2018-12-15T01:54:08.521Z,100916.33
2018-12-15T01:56:36.666Z,100919.45
2018-12-15T01:59:04.863Z,100923.24
2018-12-15T02:01:32.978Z,100923.22
2018-12-15T02:04:01.087Z,100923.88
2018-12-15T02:06:29.188Z,100919.80
2018-12-15T02:08:57.301Z,100917.81
2018-12-15T02:11:25.495Z,100917.31
2018-12-15T02:13:53.631Z,100918.80
2018-12-15T02:16:21.744Z,100916.34
2018-12-15T02:18:49.849Z,100917.17
2018-12-15T02:21:18.238Z,100922.23
2018-12-15T02:23:46.335Z,100916.32
2018-12-15T02:26:14.452Z,100924.69
2018-12-15T02:28:42.562Z,100917.63
2018-12-15T02:31:10.677Z,100925.04
2018-12-15T02:33:38.792Z,100919.77
2018-12-15T02:36:07.024Z,100919.78
2018-12-15T02:38:35.152Z,100927.97
2018-12-15T02:41:03.261Z,100929.45
2018-12-15T02:43:31.359Z,100925.99
2018-12-15T02:45:59.477Z,100920.27
2018-12-15T02:48:27.593Z,100922.56
2018-12-15T02:50:55.729Z,100925.83
2018-12-15T02:53:23.837Z,100927.80
2018-12-15T02:55:51.948Z,100924.20
2018-12-15T02:58:20.047Z,100926.34
2018-12-15T03:00:48.159Z,100932.89
2018-12-15T03:03:16.297Z,100934.37
2018-12-15T03:05:44.491Z,100935.34
2018-12-15T03:08:12.599Z,100932.88
2018-12-15T03:10:40.714Z,100935.18
2018-12-15T03:13:08.810Z,100938.30
2018-12-15T03:15:36.916Z,100936.52
2018-12-15T03:18:05.021Z,100937.64
2018-12-15T03:20:33.138Z,100939.28
2018-12-15T03:23:01.242Z,100935.52
2018-12-15T03:25:29.357Z,100938.80
2018-12-15T03:27:57.458Z,100943.73
2018-12-15T03:30:25.577Z,100945.20
2018-12-15T03:32:53.702Z,100941.42
2018-12-15T03:35:21.882Z,100945.50
2018-12-15T03:37:49.977Z,100948.13
2018-12-15T03:40:18.108Z,100948.80
2018-12-15T03:42:46.214Z,100952.91
2018-12-15T03:45:14.318Z,100956.19
2018-12-15T03:47:42.416Z,100957.97
2018-12-15T03:50:10.553Z,100954.22
2018-12-15T03:52:38.667Z,100946.99
2018-12-15T03:55:06.784Z,100943.88
2018-12-15T03:57:34.987Z,100947.81
2018-12-15T04:00:03.192Z,100948.31
2018-12-15T04:02:31.288Z,100949.95
2018-12-15T04:04:59.522Z,100951.25
2018-12-15T04:07:27.734Z,100950.45
2018-12-15T04:09:55.862Z,100950.10
2018-12-15T04:12:23.960Z,100949.14
2018-12-15T04:14:52.062Z,100950.27
2018-12-15T04:17:20.175Z,100955.34
2018-12-15T04:19:48.281Z,100954.37
2018-12-15T04:22:19.970Z,100946.34
2018-12-15T04:24:48.071Z,100945.52
2018-12-15T04:27:16.205Z,100941.42
2018-12-15T04:29:44.314Z,100945.35
2018-12-15T04:32:12.452Z,100941.59
2018-12-15T04:34:40.554Z,100938.33
2018-12-15T04:37:08.677Z,100940.79
2018-12-15T04:39:36.777Z,100940.95
2018-12-15T04:42:04.972Z,100931.58
2018-12-15T04:44:33.151Z,100935.69
2018-12-15T04:47:01.389Z,100933.72
2018-12-15T04:49:29.494Z,100934.89
2018-12-15T04:51:57.601Z,100930.27
2018-12-15T04:54:25.715Z,100922.89
2018-12-15T04:56:53.833Z,100926.34
2018-12-15T04:59:21.938Z,100925.19
2018-12-15T05:01:50.252Z,100920.44
2018-12-15T05:04:18.352Z,100921.75
2018-12-15T05:06:46.478Z,100922.24
2018-12-15T05:09:14.578Z,100917.98
2018-12-15T05:11:42.686Z,100924.55
2018-12-15T05:14:10.827Z,100921.11
2018-12-15T05:16:38.969Z,100920.78
2018-12-15T05:19:07.092Z,100920.14
2018-12-15T05:21:35.212Z,100913.25
2018-12-15T05:24:03.326Z,100914.22
2018-12-15T05:26:31.445Z,100918.98
2018-12-15T05:28:59.547Z,100918.81
2018-12-15T05:31:27.675Z,100919.31
2018-12-15T05:33:55.779Z,100918.66
2018-12-15T05:36:23.897Z,100925.22
2018-12-15T05:38:52.000Z,100928.15
2018-12-15T05:41:20.120Z,100926.50
2018-12-15T05:43:48.229Z,100928.64
2018-12-15T05:46:16.341Z,100924.03
2018-12-15T05:48:44.446Z,100919.95
2018-12-15T05:51:12.572Z,100925.34
2018-12-15T05:53:40.675Z,100922.39
2018-12-15T05:56:08.786Z,100926.64
2018-12-15T05:58:36.891Z,100929.12
2018-12-15T06:01:05.017Z,100931.73
2018-12-15T06:03:33.110Z,100933.70
2018-12-15T06:06:01.224Z,100928.30
2018-12-15T06:08:29.321Z,100931.26
2018-12-15T06:10:57.427Z,100937.15
2018-12-15T06:13:25.538Z,100938.30
2018-12-15T06:15:53.661Z,100939.28
2018-12-15T06:18:21.768Z,100939.13
2018-12-15T06:20:49.881Z,100940.59
2018-12-15T06:23:18.095Z,100942.07
2018-12-15T06:25:46.210Z,100938.30
2018-12-15T06:28:14.319Z,100937.80
2018-12-15T06:30:42.432Z,100938.13
2018-12-15T06:33:10.538Z,100939.94
2018-12-15T06:35:38.645Z,100938.97
2018-12-15T06:38:06.767Z,100943.38
2018-12-15T06:40:34.868Z,100945.37
2018-12-15T06:43:02.988Z,100949.80
2018-12-15T06:45:31.085Z,100951.91
2018-12-15T06:47:59.332Z,100942.92
2018-12-15T06:50:27.433Z,100946.66
2018-12-15T06:52:55.565Z,100948.80
2018-12-15T06:55:23.678Z,100950.97
2018-12-15T06:57:51.811Z,100946.02
2018-12-15T07:00:19.930Z,100947.85
2018-12-15T07:02:48.033Z,100945.70
2018-12-15T07:05:16.133Z,100950.61
2018-12-15T07:07:44.243Z,100955.21
2018-12-15T07:10:12.362Z,100954.06
2018-12-15T07:12:40.485Z,100948.31
2018-12-15T07:15:08.674Z,100946.85
2018-12-15T07:17:37.402Z,100950.13
2018-12-15T07:20:06.537Z,100952.26
2018-12-15T07:22:34.645Z,100953.56
2018-12-15T07:25:02.761Z,100957.20
2018-12-15T07:27:30.880Z,100958.50
2018-12-15T07:29:58.985Z,100958.33
2018-12-15T07:32:27.382Z,100956.20
2018-12-15T07:35:00.943Z,100957.19
2018-12-15T07:37:25.618Z,100961.77
2018-12-15T07:39:53.735Z,100965.06
2018-12-15T07:42:21.853Z,100965.54
2018-12-15T07:44:49.969Z,100969.95
2018-12-15T07:47:18.083Z,100968.81
2018-12-15T07:49:46.187Z,100970.45
2018-12-15T07:52:14.297Z,100970.77
2018-12-15T07:54:42.403Z,100971.28
2018-12-15T07:57:10.510Z,100969.63
2018-12-15T07:59:38.614Z,100966.36
2018-12-15T08:02:06.727Z,100973.24
2018-12-15T08:04:34.832Z,100973.23
2018-12-15T08:07:02.944Z,100969.47
2018-12-15T08:09:31.041Z,100968.17
2018-12-15T08:12:04.675Z,100972.77
2018-12-15T08:14:32.750Z,100976.88
2018-12-15T08:17:00.866Z,100981.28
2018-12-15T08:19:28.960Z,100978.99
2018-12-15T08:21:57.095Z,100981.62
2018-12-15T08:24:25.211Z,100981.28
2018-12-15T08:26:53.333Z,100980.78
2018-12-15T08:29:21.437Z,100979.66
2018-12-15T08:31:49.549Z,100973.73
2018-12-15T08:34:17.649Z,100977.49
2018-12-15T08:36:45.773Z,100977.66
2018-12-15T08:39:13.871Z,100976.02
2018-12-15T08:41:41.981Z,100971.42
2018-12-15T08:44:10.083Z,100971.61
2018-12-15T08:46:38.191Z,100972.56
2018-12-15T08:49:06.298Z,100974.88
2018-12-15T08:51:34.493Z,100979.80
2018-12-15T08:54:02.596Z,100979.63
2018-12-15T08:56:30.718Z,100975.70
2018-12-15T08:58:58.817Z,100975.53
2018-12-15T09:01:26.918Z,100976.36
2018-12-15T09:03:55.039Z,100979.63
2018-12-15T09:06:23.147Z,100985.19
2018-12-15T09:08:51.262Z,100987.97
2018-12-15T09:11:19.375Z,100989.95
2018-12-15T09:13:47.481Z,100987.17
2018-12-15T09:16:18.408Z,100984.87
2018-12-15T09:18:46.532Z,100987.67
2018-12-15T09:21:14.629Z,100985.38
2018-12-15T09:23:42.736Z,100981.11
2018-12-15T09:26:10.849Z,100986.19
2018-12-15T09:28:38.973Z,100980.78
2018-12-15T09:31:07.068Z,100987.16
2018-12-15T09:33:35.189Z,100981.94
2018-12-15T09:36:03.297Z,100987.81
2018-12-15T09:38:31.400Z,100987.02
2018-12-15T09:40:59.513Z,100984.37
2018-12-15T09:43:27.610Z,100985.19
2018-12-15T09:45:55.722Z,100981.75
2018-12-15T09:48:23.846Z,100988.48
2018-12-15T09:50:51.947Z,100983.90
2018-12-15T09:53:20.065Z,100985.34
2018-12-15T09:55:48.182Z,100979.95
2018-12-15T09:58:16.332Z,100979.92
2018-12-15T10:00:44.446Z,100977.97
2018-12-15T10:03:12.555Z,100974.85
2018-12-15T10:05:40.651Z,100977.30
2018-12-15T10:08:08.765Z,100971.40
2018-12-15T10:10:36.915Z,100969.44
2018-12-15T10:13:05.048Z,100969.76
2018-12-15T10:15:33.151Z,100967.65
2018-12-15T10:18:01.351Z,100971.40
2018-12-15T10:20:29.498Z,100972.06
2018-12-15T10:22:57.611Z,100968.59
2018-12-15T10:25:25.717Z,100963.38
2018-12-15T10:27:53.826Z,100962.70
2018-12-15T10:33:26.429Z,100963.55
2018-12-15T10:35:54.522Z,100960.59
2018-12-15T10:38:22.648Z,100961.08
2018-12-15T10:40:50.743Z,100962.87
2018-12-15T10:43:18.867Z,100955.82
2018-12-15T10:45:46.968Z,100956.98
2018-12-15T10:48:15.088Z,100955.15
2018-12-15T10:50:43.248Z,100952.86
2018-12-15T10:53:11.430Z,100952.20
2018-12-15T10:55:39.528Z,100953.50
2018-12-15T10:58:07.670Z,100949.73
2018-12-15T11:00:41.388Z,100948.74
2018-12-15T11:03:09.510Z,100945.49
2018-12-15T11:05:37.610Z,100938.59
2018-12-15T11:08:05.736Z,100933.52
2018-12-15T11:10:33.850Z,100924.98
2018-12-15T11:13:01.967Z,100925.62
2018-12-15T11:15:30.078Z,100926.92
2018-12-15T11:17:58.196Z,100918.24
2018-12-15T11:20:26.313Z,100920.88
2018-12-15T11:22:54.421Z,100922.69
2018-12-15T11:25:22.528Z,100918.74
2018-12-15T11:27:50.633Z,100912.66
2018-12-15T11:30:18.756Z,100908.88
2018-12-15T11:32:46.864Z,100905.94
2018-12-15T11:35:14.977Z,100903.96
2018-12-15T11:37:43.063Z,100900.33
2018-12-15T11:40:11.178Z,100903.14
2018-12-15T11:42:39.282Z,100896.58
2018-12-15T11:45:07.407Z,100888.20
2018-12-15T11:47:35.507Z,100888.36
2018-12-15T11:50:03.823Z,100881.31
2018-12-15T11:52:31.939Z,100887.23
2018-12-15T11:55:00.050Z,100884.12
2018-12-15T11:57:28.159Z,100879.53
2018-12-15T11:59:56.285Z,100878.23
2018-12-15T12:02:24.391Z,100874.59
2018-12-15T12:04:52.523Z,100872.45
2018-12-15T12:07:20.630Z,100876.73
2018-12-15T12:09:48.740Z,100878.37
2018-12-15T12:12:16.842Z,100874.75
2018-12-15T12:14:44.951Z,100874.09
2018-12-15T12:17:13.052Z,100873.61
2018-12-15T12:19:41.172Z,100871.16
2018-12-15T12:22:09.282Z,100866.71
2018-12-15T12:24:37.399Z,100866.06
2018-12-15T12:27:05.506Z,100860.48
2018-12-15T12:29:33.620Z,100861.98
2018-12-15T12:32:01.725Z,100860.33
2018-12-15T12:34:29.843Z,100862.47
2018-12-15T12:36:58.317Z,100859.19
2018-12-15T12:39:26.438Z,100857.70
2018-12-15T12:41:54.553Z,100851.95
2018-12-15T12:44:22.692Z,100855.74
2018-12-15T12:46:50.836Z,100849.52
2018-12-15T12:49:18.956Z,100849.66
2018-12-15T12:51:47.069Z,100841.61
2018-12-15T12:54:15.183Z,100836.36
2018-12-15T12:56:43.300Z,100833.58
2018-12-15T12:59:11.414Z,100828.16
2018-12-15T13:01:39.574Z,100823.23
2018-12-15T13:04:07.703Z,100826.03
2018-12-15T13:06:35.806Z,100832.76
2018-12-15T13:09:05.987Z,100830.48
2018-12-15T13:11:34.093Z,100824.89
2018-12-15T13:14:02.198Z,100823.94
2018-12-15T13:16:30.317Z,100823.10
2018-12-15T13:18:58.478Z,100823.59
2018-12-15T13:21:27.623Z,100821.47
2018-12-15T13:23:55.732Z,100824.25
2018-12-15T13:26:23.839Z,100828.35
2018-12-15T13:28:51.940Z,100839.33
2018-12-15T13:31:20.087Z,100838.02
2018-12-15T13:33:48.266Z,100834.77
2018-12-15T13:36:16.564Z,100833.42
2018-12-15T13:38:44.671Z,100828.84
2018-12-15T13:41:12.788Z,100827.86
2018-12-15T13:43:40.901Z,100828.35
2018-12-15T13:46:09.016Z,100831.31
2018-12-15T13:48:37.126Z,100825.73
2018-12-15T13:51:05.243Z,100824.93
2018-12-15T13:53:33.365Z,100827.08
2018-12-15T13:56:01.487Z,100822.12
2018-12-15T13:58:29.585Z,100826.08
2018-12-15T14:00:57.697Z,100828.19
2018-12-15T14:03:25.791Z,100829.84
2018-12-15T14:05:53.922Z,100821.31
2018-12-15T14:08:22.028Z,100826.22
2018-12-15T14:10:50.139Z,100826.06
2018-12-15T14:13:18.245Z,100823.60
2018-12-15T14:15:46.373Z,100828.86
2018-12-15T14:18:14.468Z,100829.52
2018-12-15T14:20:42.593Z,100841.50
2018-12-15T14:23:10.707Z,100843.31
2018-12-15T14:25:38.846Z,100840.36
2018-12-15T14:28:06.954Z,100841.20
2018-12-15T14:30:35.072Z,100838.05
2018-12-15T14:33:03.181Z,100844.31
2018-12-15T14:35:31.322Z,100848.75
2018-12-15T14:37:59.422Z,100855.80
2018-12-15T14:40:27.545Z,100844.50
2018-12-15T14:42:55.652Z,100845.80
2018-12-15T14:45:23.773Z,100840.05
2018-12-15T14:47:51.879Z,100846.61
2018-12-15T14:50:23.408Z,100845.64
2018-12-15T14:52:50.138Z,100845.33
2018-12-15T14:55:18.251Z,100833.50
2018-12-15T14:57:46.365Z,100827.13
2018-12-15T15:00:14.486Z,100820.22
2018-12-15T15:02:42.594Z,100817.47
2018-12-15T15:05:10.845Z,100812.72
2018-12-15T15:07:38.956Z,100806.80
2018-12-15T15:10:07.141Z,100803.34
2018-12-15T15:12:35.249Z,100803.19
2018-12-15T15:15:03.627Z,100794.82
2018-12-15T15:17:31.733Z,100797.95
2018-12-15T15:19:59.834Z,100786.31
2018-12-15T15:22:27.948Z,100795.31
2018-12-15T15:24:56.057Z,100788.46
2018-12-15T15:27:24.167Z,100782.84
2018-12-15T15:29:52.275Z,100780.73
2018-12-15T15:32:20.394Z,100779.24
2018-12-15T15:34:48.504Z,100774.17
2018-12-15T15:37:16.625Z,100770.56
2018-12-15T15:39:44.739Z,100766.63
2018-12-15T15:42:12.856Z,100762.19
2018-12-15T15:44:40.966Z,100766.45
2018-12-15T15:47:09.083Z,100764.31
2018-12-15T15:49:37.205Z,100759.75
2018-12-15T15:52:05.332Z,100762.04
2018-12-15T15:54:33.448Z,100761.22
2018-12-15T15:57:01.586Z,100753.83
2018-12-15T15:59:29.694Z,100750.08
2018-12-15T16:01:57.808Z,100751.41
2018-12-15T16:04:25.918Z,100758.45
2018-12-15T16:06:54.023Z,100758.30
2018-12-15T16:09:22.134Z,100749.77
2018-12-15T16:11:50.251Z,100747.31
2018-12-15T16:14:18.357Z,100748.78
2018-12-15T16:16:46.483Z,100741.06
2018-12-15T16:19:14.579Z,100734.84
2018-12-15T16:21:42.700Z,100728.13
2018-12-15T16:24:10.815Z,100717.45
2018-12-15T16:26:38.943Z,100716.32
2018-12-15T16:29:07.061Z,100710.23
2018-12-15T16:31:35.196Z,100703.69
2018-12-15T16:34:03.312Z,100710.42
2018-12-15T16:36:31.431Z,100709.09
2018-12-15T16:38:59.548Z,100711.56
2018-12-15T16:41:27.678Z,100712.38
2018-12-15T16:43:55.799Z,100704.33
2018-12-15T16:46:23.906Z,100703.50
2018-12-15T16:48:52.024Z,100704.48
2018-12-15T16:51:20.159Z,100704.83
2018-12-15T16:53:48.264Z,100696.16
2018-12-15T16:56:16.386Z,100690.59
2018-12-15T16:58:44.509Z,100697.46
2018-12-15T17:01:12.650Z,100695.67
2018-12-15T17:03:40.764Z,100692.41
2018-12-15T17:06:09.044Z,100690.11
2018-12-15T17:08:37.159Z,100687.82
2018-12-15T17:11:05.276Z,100683.23
2018-12-15T17:13:33.383Z,100681.09
2018-12-15T17:16:01.519Z,100685.53
2018-12-15T17:18:29.629Z,100684.55
2018-12-15T17:20:57.889Z,100678.66
2018-12-15T17:23:25.988Z,100681.77
2018-12-15T17:25:54.118Z,100680.80
2018-12-15T17:28:22.240Z,100675.56
2018-12-15T17:30:50.361Z,100675.55
2018-12-15T17:33:18.478Z,100673.11
2018-12-15T17:35:46.584Z,100668.20
2018-12-15T17:38:14.719Z,100671.98
2018-12-15T17:40:42.830Z,100674.78
2018-12-15T17:43:10.972Z,100676.73
2018-12-15T17:45:39.086Z,100668.55
2018-12-15T17:48:07.196Z,100677.57
2018-12-15T17:50:35.366Z,100671.70
2018-12-15T17:53:03.487Z,100666.95
2018-12-15T17:55:31.620Z,100662.36
2018-12-15T17:57:59.762Z,100659.08
2018-12-15T18:00:27.887Z,100651.05
2018-12-15T18:02:56.033Z,100653.52
2018-12-15T18:05:24.230Z,100646.45
2018-12-15T18:07:52.420Z,100649.89
2018-12-15T18:10:20.522Z,100638.27
2018-12-15T18:12:48.719Z,100632.70
2018-12-15T18:15:16.897Z,100633.84
2018-12-15T18:17:45.102Z,100622.56
2018-12-15T18:20:13.874Z,100621.89
2018-12-15T18:22:42.094Z,100621.41
2018-12-15T18:25:10.243Z,100610.28
2018-12-15T18:27:38.361Z,100605.84
2018-12-15T18:30:08.522Z,100600.59
2018-12-15T18:32:36.636Z,100599.61
2018-12-15T18:35:04.920Z,100593.40
2018-12-15T18:37:33.051Z,100591.11
2018-12-15T18:40:01.164Z,100581.92
2018-12-15T18:42:29.287Z,100581.28
2018-12-15T18:44:57.452Z,100576.72
2018-12-15T18:47:25.617Z,100571.64
2018-12-15T18:49:53.734Z,100570.34
2018-12-15T18:52:21.862Z,100560.69
2018-12-15T18:54:51.032Z,100556.58
2018-12-15T18:57:19.211Z,100553.16
2018-12-15T18:59:47.446Z,100547.59
2018-12-15T19:02:15.569Z,100546.30
2018-12-15T19:04:43.690Z,100542.69
2018-12-15T19:07:11.826Z,100535.97
2018-12-15T19:09:39.931Z,100534.67
2018-12-15T19:12:08.056Z,100541.08
2018-12-15T19:14:36.220Z,100521.94
2018-12-15T19:17:04.343Z,100527.36
2018-12-15T19:19:32.451Z,100521.45
2018-12-15T19:22:00.613Z,100524.58
2018-12-15T19:24:28.721Z,100520.98
2018-12-15T19:26:56.836Z,100520.50
2018-12-15T19:29:24.936Z,100511.48
2018-12-15T19:31:53.053Z,100509.86
2018-12-15T19:34:21.199Z,100499.53
2018-12-15T19:36:49.322Z,100493.16
2018-12-15T19:39:17.445Z,100491.69
2018-12-15T19:41:45.555Z,100492.35
2018-12-15T19:44:13.689Z,100484.16
2018-12-15T19:46:41.794Z,100485.48
2018-12-15T19:49:09.916Z,100478.95
2018-12-15T19:51:38.030Z,100476.66
2018-12-15T19:54:06.151Z,100477.81
2018-12-15T19:56:34.289Z,100476.17
2018-12-15T19:59:02.414Z,100475.36
2018-12-15T20:01:30.524Z,100473.10
2018-12-15T20:03:58.648Z,100467.87
2018-12-15T20:06:26.747Z,100471.47
2018-12-15T20:08:54.863Z,100469.72
2018-12-15T20:11:23.006Z,100473.81
2018-12-15T20:13:51.118Z,100473.65
2018-12-15T20:16:19.803Z,100468.43
2018-12-15T20:18:47.931Z,100458.61
2018-12-15T20:21:16.037Z,100456.61
2018-12-15T20:23:44.150Z,100453.83
2018-12-15T20:26:12.259Z,100454.16
2018-12-15T20:28:40.485Z,100452.69
2018-12-15T20:31:08.581Z,100438.45
2018-12-15T20:33:36.698Z,100435.18
2018-12-15T20:36:04.803Z,100438.78
2018-12-15T20:38:32.919Z,100430.61
2018-12-15T20:41:01.026Z,100426.50
2018-12-15T20:43:29.142Z,100428.48
2018-12-15T20:45:57.247Z,100416.99
2018-12-15T20:48:25.391Z,100409.33
2018-12-15T20:50:53.491Z,100414.91
2018-12-15T20:53:21.608Z,100410.48
2018-12-15T20:55:49.726Z,100408.55
2018-12-15T20:58:17.855Z,100409.22
2018-12-15T21:00:45.982Z,100413.78
2018-12-15T21:03:14.105Z,100414.77
2018-12-15T21:05:42.223Z,100413.78
2018-12-15T21:08:10.342Z,100410.52
2018-12-15T21:10:38.447Z,100407.77
2018-12-15T21:13:06.557Z,100399.58
2018-12-15T21:15:36.650Z,100391.70
2018-12-15T21:18:04.761Z,100382.87
2018-12-15T21:20:32.870Z,100374.55
2018-12-15T21:23:00.979Z,100371.95
2018-12-15T21:25:29.101Z,100376.53
2018-12-15T21:27:57.239Z,100377.50
2018-12-15T21:30:25.344Z,100367.20
2018-12-15T21:32:53.481Z,100358.20
2018-12-15T21:35:21.581Z,100353.14
2018-12-15T21:37:49.704Z,100342.52
2018-12-15T21:40:17.804Z,100327.63
2018-12-15T21:42:45.919Z,100323.06
2018-12-15T21:45:14.053Z,100315.39
2018-12-15T21:47:42.167Z,100300.84
2018-12-15T21:50:10.288Z,100309.85
2018-12-15T21:52:38.396Z,100312.02
2018-12-15T21:55:06.515Z,100314.95
2018-12-15T21:57:34.619Z,100315.28
2018-12-15T22:00:02.724Z,100301.20
2018-12-15T22:02:30.845Z,100304.96
2018-12-15T22:04:58.953Z,100305.14
2018-12-15T22:07:27.076Z,100307.76
2018-12-15T22:09:55.195Z,100304.95
2018-12-15T22:12:23.290Z,100303.34
2018-12-15T22:14:51.400Z,100306.44
2018-12-15T22:17:19.510Z,100291.54
2018-12-15T22:19:47.631Z,100287.29
2018-12-15T22:22:15.759Z,100273.39
2018-12-15T22:24:44.255Z,100278.95
2018-12-15T22:27:12.356Z,100277.03
2018-12-15T22:29:40.506Z,100286.03
2018-12-15T22:32:08.611Z,100270.02
2018-12-15T22:34:36.726Z,100251.52
2018-12-15T22:37:04.825Z,100252.04
2018-12-15T22:39:32.956Z,100228.80
2018-12-15T22:42:01.065Z,100226.50
2018-12-15T22:44:29.174Z,100218.80
2018-12-15T22:46:57.285Z,100197.73
2018-12-15T22:49:25.409Z,100188.23
2018-12-15T22:51:53.531Z,100173.84
2018-12-15T22:54:21.640Z,100166.48
2018-12-15T22:56:49.749Z,100161.25
2018-12-15T22:59:17.853Z,100149.97
2018-12-15T23:01:45.943Z,100153.41
2018-12-15T23:04:14.640Z,100155.23
2018-12-15T23:06:42.824Z,100143.44
2018-12-15T23:09:10.932Z,100145.91
2018-12-15T23:11:39.044Z,100146.39
2018-12-15T23:14:07.148Z,100142.32
2018-12-15T23:16:35.255Z,100151.48
2018-12-15T23:19:03.358Z,100145.44
2018-12-15T23:21:31.457Z,100134.48
2018-12-15T23:23:59.571Z,100129.27
2018-12-15T23:26:27.663Z,100125.02
2018-12-15T23:28:55.771Z,100124.85
2018-12-15T23:31:23.867Z,100133.23
2018-12-15T23:33:51.968Z,100131.41
2018-12-15T23:36:20.075Z,100127.66
2018-12-15T23:38:48.186Z,100121.41
2018-12-15T23:41:16.293Z,100110.28
2018-12-15T23:43:44.413Z,100100.61
2018-12-15T23:46:12.512Z,100094.56
2018-12-15T23:48:40.646Z,100094.73
2018-12-15T23:51:08.743Z,100089.98
2018-12-15T23:53:36.849Z,100077.72
2018-12-15T23:56:04.987Z,100075.77
2018-12-15T23:58:33.095Z,100070.56
